sensor_id;sensor_type;location;lat;lon;timestamp;P1;durP1;ratioP1;P2;durP2;ratioP2
32946;SDS011;54465;51.230;22.504;2022-10-22T00:02:14;6.00;;;4.47;;
32946;SDS011;54465;51.230;22.504;2022-10-22T00:05:19;8.05;;;4.70;;
32946;SDS011;54465;51.230;22.504;2022-10-22T00:08:25;8.00;;;5.13;;
32946;SDS011;54465;51.230;22.504;2022-10-22T00:11:29;8.20;;;4.53;;
32946;SDS011;54465;51.230;22.504;2022-10-22T00:14:31;6.70;;;4.70;;
32946;SDS011;54465;51.230;22.504;2022-10-22T00:17:34;7.10;;;4.35;;
32946;SDS011;54465;51.230;22.504;2022-10-22T00:20:37;8.52;;;4.10;;
32946;SDS011;54465;51.230;22.504;2022-10-22T00:23:41;6.13;;;4.13;;
32946;SDS011;54465;51.230;22.504;2022-10-22T00:26:44;8.05;;;4.25;;
32946;SDS011;54465;51.230;22.504;2022-10-22T00:29:47;6.38;;;4.50;;
32946;SDS011;54465;51.230;22.504;2022-10-22T00:32:49;6.72;;;4.13;;
32946;SDS011;54465;51.230;22.504;2022-10-22T00:35:52;6.20;;;4.22;;
32946;SDS011;54465;51.230;22.504;2022-10-22T00:38:57;5.38;;;4.03;;
32946;SDS011;54465;51.230;22.504;2022-10-22T00:41:59;5.50;;;4.15;;
32946;SDS011;54465;51.230;22.504;2022-10-22T00:45:07;8.43;;;4.53;;
32946;SDS011;54465;51.230;22.504;2022-10-22T00:48:18;6.70;;;4.60;;
32946;SDS011;54465;51.230;22.504;2022-10-22T00:51:22;8.65;;;4.30;;
32946;SDS011;54465;51.230;22.504;2022-10-22T00:54:29;5.28;;;3.92;;
32946;SDS011;54465;51.230;22.504;2022-10-22T00:57:32;5.10;;;3.70;;
32946;SDS011;54465;51.230;22.504;2022-10-22T01:00:36;6.40;;;4.35;;
32946;SDS011;54465;51.230;22.504;2022-10-22T01:03:39;5.38;;;3.88;;
32946;SDS011;54465;51.230;22.504;2022-10-22T01:06:42;9.50;;;4.38;;
32946;SDS011;54465;51.230;22.504;2022-10-22T01:09:48;5.72;;;4.25;;
32946;SDS011;54465;51.230;22.504;2022-10-22T01:13:01;7.35;;;4.07;;
32946;SDS011;54465;51.230;22.504;2022-10-22T01:16:16;6.63;;;3.78;;
32946;SDS011;54465;51.230;22.504;2022-10-22T01:19:30;7.50;;;4.35;;
32946;SDS011;54465;51.230;22.504;2022-10-22T01:22:43;7.10;;;4.25;;
32946;SDS011;54465;51.230;22.504;2022-10-22T01:25:57;7.60;;;3.95;;
32946;SDS011;54465;51.230;22.504;2022-10-22T01:29:09;5.68;;;3.58;;
32946;SDS011;54465;51.230;22.504;2022-10-22T01:32:15;5.80;;;4.05;;
32946;SDS011;54465;51.230;22.504;2022-10-22T01:35:21;6.82;;;4.38;;
32946;SDS011;54465;51.230;22.504;2022-10-22T01:38:25;8.88;;;4.93;;
32946;SDS011;54465;51.230;22.504;2022-10-22T01:41:28;5.55;;;3.58;;
32946;SDS011;54465;51.230;22.504;2022-10-22T01:44:33;6.95;;;4.28;;
32946;SDS011;54465;51.230;22.504;2022-10-22T01:47:38;6.28;;;3.95;;
32946;SDS011;54465;51.230;22.504;2022-10-22T01:54:24;5.00;;;3.78;;
32946;SDS011;54465;51.230;22.504;2022-10-22T01:57:35;7.35;;;4.88;;
32946;SDS011;54465;51.230;22.504;2022-10-22T02:00:49;7.20;;;4.55;;
32946;SDS011;54465;51.230;22.504;2022-10-22T02:03:59;7.45;;;4.10;;
32946;SDS011;54465;51.230;22.504;2022-10-22T02:07:06;5.28;;;3.95;;
32946;SDS011;54465;51.230;22.504;2022-10-22T02:10:12;4.88;;;3.40;;
32946;SDS011;54465;51.230;22.504;2022-10-22T02:13:17;10.70;;;4.82;;
32946;SDS011;54465;51.230;22.504;2022-10-22T02:16:27;8.32;;;4.50;;
32946;SDS011;54465;51.230;22.504;2022-10-22T02:19:34;6.05;;;3.95;;
32946;SDS011;54465;51.230;22.504;2022-10-22T02:22:41;6.38;;;4.03;;
32946;SDS011;54465;51.230;22.504;2022-10-22T02:25:44;7.53;;;4.35;;
32946;SDS011;54465;51.230;22.504;2022-10-22T02:28:55;5.38;;;3.88;;
32946;SDS011;54465;51.230;22.504;2022-10-22T02:32:02;8.95;;;4.03;;
32946;SDS011;54465;51.230;22.504;2022-10-22T02:35:07;5.20;;;4.00;;
32946;SDS011;54465;51.230;22.504;2022-10-22T02:38:12;5.97;;;3.90;;
32946;SDS011;54465;51.230;22.504;2022-10-22T02:41:14;5.82;;;3.95;;
32946;SDS011;54465;51.230;22.504;2022-10-22T02:44:19;6.53;;;3.90;;
32946;SDS011;54465;51.230;22.504;2022-10-22T02:47:24;8.75;;;4.00;;
32946;SDS011;54465;51.230;22.504;2022-10-22T02:50:26;6.07;;;3.78;;
32946;SDS011;54465;51.230;22.504;2022-10-22T02:53:29;4.97;;;3.95;;
32946;SDS011;54465;51.230;22.504;2022-10-22T02:56:32;7.13;;;3.97;;
32946;SDS011;54465;51.230;22.504;2022-10-22T02:59:34;7.47;;;3.75;;
32946;SDS011;54465;51.230;22.504;2022-10-22T03:02:39;7.47;;;4.60;;
32946;SDS011;54465;51.230;22.504;2022-10-22T03:05:41;10.27;;;3.70;;
32946;SDS011;54465;51.230;22.504;2022-10-22T03:08:44;5.35;;;3.70;;
32946;SDS011;54465;51.230;22.504;2022-10-22T03:11:46;5.18;;;3.65;;
32946;SDS011;54465;51.230;22.504;2022-10-22T03:14:51;4.85;;;3.35;;
32946;SDS011;54465;51.230;22.504;2022-10-22T03:17:56;5.45;;;3.80;;
32946;SDS011;54465;51.230;22.504;2022-10-22T03:20:59;6.47;;;3.80;;
32946;SDS011;54465;51.230;22.504;2022-10-22T03:24:07;6.07;;;3.83;;
32946;SDS011;54465;51.230;22.504;2022-10-22T03:27:14;6.55;;;3.35;;
32946;SDS011;54465;51.230;22.504;2022-10-22T03:30:19;4.65;;;3.47;;
32946;SDS011;54465;51.230;22.504;2022-10-22T03:33:24;6.25;;;3.80;;
32946;SDS011;54465;51.230;22.504;2022-10-22T03:36:27;5.00;;;3.50;;
32946;SDS011;54465;51.230;22.504;2022-10-22T03:39:30;4.70;;;3.63;;
32946;SDS011;54465;51.230;22.504;2022-10-22T03:42:34;5.32;;;3.70;;
32946;SDS011;54465;51.230;22.504;2022-10-22T03:45:37;6.43;;;3.25;;
32946;SDS011;54465;51.230;22.504;2022-10-22T03:48:41;5.22;;;3.58;;
32946;SDS011;54465;51.230;22.504;2022-10-22T03:51:43;4.35;;;2.97;;
32946;SDS011;54465;51.230;22.504;2022-10-22T03:54:46;5.95;;;3.38;;
32946;SDS011;54465;51.230;22.504;2022-10-22T03:57:48;6.20;;;3.78;;
32946;SDS011;54465;51.230;22.504;2022-10-22T04:00:51;4.88;;;3.92;;
32946;SDS011;54465;51.230;22.504;2022-10-22T04:03:57;7.15;;;3.00;;
32946;SDS011;54465;51.230;22.504;2022-10-22T04:07:00;4.85;;;3.33;;
32946;SDS011;54465;51.230;22.504;2022-10-22T04:10:03;5.25;;;3.58;;
32946;SDS011;54465;51.230;22.504;2022-10-22T04:13:06;6.40;;;4.05;;
32946;SDS011;54465;51.230;22.504;2022-10-22T04:16:09;6.10;;;3.58;;
32946;SDS011;54465;51.230;22.504;2022-10-22T04:19:15;7.38;;;3.65;;
32946;SDS011;54465;51.230;22.504;2022-10-22T04:22:18;7.07;;;4.20;;
32946;SDS011;54465;51.230;22.504;2022-10-22T04:25:20;5.82;;;3.95;;
32946;SDS011;54465;51.230;22.504;2022-10-22T04:28:23;8.05;;;3.30;;
32946;SDS011;54465;51.230;22.504;2022-10-22T04:31:26;4.97;;;3.47;;
32946;SDS011;54465;51.230;22.504;2022-10-22T04:34:31;5.25;;;3.70;;
32946;SDS011;54465;51.230;22.504;2022-10-22T04:37:33;8.48;;;3.78;;
32946;SDS011;54465;51.230;22.504;2022-10-22T04:40:36;4.88;;;3.60;;
32946;SDS011;54465;51.230;22.504;2022-10-22T04:43:39;4.13;;;3.13;;
32946;SDS011;54465;51.230;22.504;2022-10-22T04:46:43;7.25;;;3.63;;
32946;SDS011;54465;51.230;22.504;2022-10-22T04:49:48;6.55;;;4.00;;
32946;SDS011;54465;51.230;22.504;2022-10-22T04:52:51;4.50;;;3.42;;
32946;SDS011;54465;51.230;22.504;2022-10-22T04:55:54;6.88;;;3.90;;
32946;SDS011;54465;51.230;22.504;2022-10-22T04:59:08;6.22;;;3.28;;
32946;SDS011;54465;51.230;22.504;2022-10-22T05:02:12;5.47;;;3.67;;
32946;SDS011;54465;51.230;22.504;2022-10-22T05:05:16;6.95;;;3.85;;
32946;SDS011;54465;51.230;22.504;2022-10-22T05:08:24;7.55;;;3.80;;
32946;SDS011;54465;51.230;22.504;2022-10-22T05:11:28;4.75;;;3.90;;
32946;SDS011;54465;51.230;22.504;2022-10-22T05:14:33;8.07;;;3.50;;
32946;SDS011;54465;51.230;22.504;2022-10-22T05:17:35;5.25;;;3.92;;
32946;SDS011;54465;51.230;22.504;2022-10-22T05:20:41;4.28;;;3.28;;
32946;SDS011;54465;51.230;22.504;2022-10-22T05:23:44;6.05;;;4.13;;
32946;SDS011;54465;51.230;22.504;2022-10-22T05:26:48;5.10;;;3.92;;
32946;SDS011;54465;51.230;22.504;2022-10-22T05:29:51;6.15;;;4.00;;
32946;SDS011;54465;51.230;22.504;2022-10-22T05:32:53;6.05;;;4.05;;
32946;SDS011;54465;51.230;22.504;2022-10-22T05:35:57;7.15;;;4.20;;
32946;SDS011;54465;51.230;22.504;2022-10-22T05:38:59;6.03;;;3.50;;
32946;SDS011;54465;51.230;22.504;2022-10-22T05:42:02;5.75;;;3.90;;
32946;SDS011;54465;51.230;22.504;2022-10-22T05:45:05;4.20;;;3.75;;
32946;SDS011;54465;51.230;22.504;2022-10-22T05:48:09;6.03;;;4.00;;
32946;SDS011;54465;51.230;22.504;2022-10-22T05:54:48;9.35;;;5.00;;
32946;SDS011;54465;51.230;22.504;2022-10-22T05:57:54;7.55;;;4.97;;
32946;SDS011;54465;51.230;22.504;2022-10-22T06:01:02;8.70;;;5.50;;
32946;SDS011;54465;51.230;22.504;2022-10-22T06:04:09;7.50;;;5.13;;
32946;SDS011;54465;51.230;22.504;2022-10-22T06:07:17;6.63;;;4.90;;
32946;SDS011;54465;51.230;22.504;2022-10-22T06:10:20;7.88;;;5.10;;
32946;SDS011;54465;51.230;22.504;2022-10-22T06:13:25;6.15;;;4.35;;
32946;SDS011;54465;51.230;22.504;2022-10-22T06:16:31;6.75;;;5.00;;
32946;SDS011;54465;51.230;22.504;2022-10-22T06:19:34;5.78;;;4.40;;
32946;SDS011;54465;51.230;22.504;2022-10-22T06:22:41;9.30;;;4.22;;
32946;SDS011;54465;51.230;22.504;2022-10-22T06:25:43;7.38;;;4.85;;
32946;SDS011;54465;51.230;22.504;2022-10-22T06:28:57;7.18;;;4.32;;
32946;SDS011;54465;51.230;22.504;2022-10-22T06:32:00;5.63;;;4.32;;
32946;SDS011;54465;51.230;22.504;2022-10-22T06:35:04;6.95;;;4.68;;
32946;SDS011;54465;51.230;22.504;2022-10-22T06:38:16;6.43;;;4.47;;
32946;SDS011;54465;51.230;22.504;2022-10-22T06:41:19;7.78;;;4.70;;
32946;SDS011;54465;51.230;22.504;2022-10-22T06:44:22;7.30;;;4.35;;
32946;SDS011;54465;51.230;22.504;2022-10-22T06:47:24;6.32;;;5.13;;
32946;SDS011;54465;51.230;22.504;2022-10-22T06:50:32;5.97;;;4.70;;
32946;SDS011;54465;51.230;22.504;2022-10-22T06:53:37;8.25;;;5.10;;
32946;SDS011;54465;51.230;22.504;2022-10-22T06:56:42;5.55;;;4.45;;
32946;SDS011;54465;51.230;22.504;2022-10-22T06:59:45;10.13;;;5.75;;
32946;SDS011;54465;51.230;22.504;2022-10-22T07:02:58;11.13;;;5.55;;
32946;SDS011;54465;51.230;22.504;2022-10-22T07:06:01;8.77;;;5.38;;
32946;SDS011;54465;51.230;22.504;2022-10-22T07:09:13;11.88;;;5.88;;
32946;SDS011;54465;51.230;22.504;2022-10-22T07:12:20;7.43;;;5.78;;
32946;SDS011;54465;51.230;22.504;2022-10-22T07:15:23;7.65;;;5.30;;
32946;SDS011;54465;51.230;22.504;2022-10-22T07:18:26;9.43;;;5.53;;
32946;SDS011;54465;51.230;22.504;2022-10-22T07:21:29;9.32;;;6.22;;
32946;SDS011;54465;51.230;22.504;2022-10-22T07:24:33;9.95;;;6.60;;
32946;SDS011;54465;51.230;22.504;2022-10-22T07:27:37;11.82;;;7.00;;
32946;SDS011;54465;51.230;22.504;2022-10-22T07:30:45;11.55;;;7.32;;
32946;SDS011;54465;51.230;22.504;2022-10-22T07:33:47;11.38;;;7.65;;
32946;SDS011;54465;51.230;22.504;2022-10-22T07:36:51;12.38;;;7.70;;
32946;SDS011;54465;51.230;22.504;2022-10-22T07:39:55;12.43;;;7.63;;
32946;SDS011;54465;51.230;22.504;2022-10-22T07:42:57;11.77;;;7.53;;
32946;SDS011;54465;51.230;22.504;2022-10-22T07:46:02;11.98;;;9.00;;
32946;SDS011;54465;51.230;22.504;2022-10-22T07:49:09;17.70;;;10.18;;
32946;SDS011;54465;51.230;22.504;2022-10-22T07:52:11;19.33;;;11.23;;
32946;SDS011;54465;51.230;22.504;2022-10-22T07:55:16;17.67;;;9.70;;
32946;SDS011;54465;51.230;22.504;2022-10-22T07:58:22;16.00;;;9.55;;
32946;SDS011;54465;51.230;22.504;2022-10-22T08:01:27;15.43;;;9.48;;
32946;SDS011;54465;51.230;22.504;2022-10-22T08:04:35;17.55;;;11.15;;
32946;SDS011;54465;51.230;22.504;2022-10-22T08:07:38;17.40;;;11.52;;
32946;SDS011;54465;51.230;22.504;2022-10-22T08:10:43;13.95;;;9.90;;
32946;SDS011;54465;51.230;22.504;2022-10-22T08:13:55;16.95;;;10.70;;
32946;SDS011;54465;51.230;22.504;2022-10-22T08:16:58;14.82;;;10.25;;
32946;SDS011;54465;51.230;22.504;2022-10-22T08:20:02;16.92;;;10.50;;
32946;SDS011;54465;51.230;22.504;2022-10-22T08:23:05;16.35;;;10.93;;
32946;SDS011;54465;51.230;22.504;2022-10-22T08:26:10;12.82;;;8.95;;
32946;SDS011;54465;51.230;22.504;2022-10-22T08:29:12;16.95;;;10.05;;
32946;SDS011;54465;51.230;22.504;2022-10-22T08:32:15;17.30;;;10.95;;
32946;SDS011;54465;51.230;22.504;2022-10-22T08:35:18;14.88;;;9.77;;
32946;SDS011;54465;51.230;22.504;2022-10-22T08:38:24;16.40;;;9.90;;
32946;SDS011;54465;51.230;22.504;2022-10-22T08:41:29;14.55;;;9.32;;
32946;SDS011;54465;51.230;22.504;2022-10-22T08:44:53;13.15;;;8.52;;
32946;SDS011;54465;51.230;22.504;2022-10-22T08:48:07;13.27;;;9.10;;
32946;SDS011;54465;51.230;22.504;2022-10-22T08:51:20;12.32;;;8.10;;
32946;SDS011;54465;51.230;22.504;2022-10-22T08:54:29;14.27;;;9.07;;
32946;SDS011;54465;51.230;22.504;2022-10-22T08:57:45;12.65;;;9.25;;
32946;SDS011;54465;51.230;22.504;2022-10-22T09:01:32;12.05;;;8.50;;
32946;SDS011;54465;51.230;22.504;2022-10-22T09:04:37;13.75;;;8.77;;
32946;SDS011;54465;51.230;22.504;2022-10-22T09:07:48;11.48;;;7.57;;
32946;SDS011;54465;51.230;22.504;2022-10-22T09:10:53;14.23;;;8.93;;
32946;SDS011;54465;51.230;22.504;2022-10-22T09:14:04;13.18;;;8.70;;
32946;SDS011;54465;51.230;22.504;2022-10-22T09:17:12;12.60;;;9.38;;
32946;SDS011;54465;51.230;22.504;2022-10-22T09:20:21;11.50;;;8.25;;
32946;SDS011;54465;51.230;22.504;2022-10-22T09:23:31;13.35;;;9.45;;
32946;SDS011;54465;51.230;22.504;2022-10-22T09:26:39;13.88;;;9.05;;
32946;SDS011;54465;51.230;22.504;2022-10-22T09:29:46;15.68;;;8.73;;
32946;SDS011;54465;51.230;22.504;2022-10-22T09:32:49;15.75;;;9.38;;
32946;SDS011;54465;51.230;22.504;2022-10-22T09:35:56;13.68;;;8.70;;
32946;SDS011;54465;51.230;22.504;2022-10-22T09:39:02;11.68;;;8.95;;
32946;SDS011;54465;51.230;22.504;2022-10-22T09:42:05;15.07;;;9.07;;
32946;SDS011;54465;51.230;22.504;2022-10-22T09:45:13;13.00;;;9.05;;
32946;SDS011;54465;51.230;22.504;2022-10-22T09:48:19;14.27;;;9.80;;
32946;SDS011;54465;51.230;22.504;2022-10-22T09:51:34;14.35;;;9.32;;
32946;SDS011;54465;51.230;22.504;2022-10-22T09:54:41;14.73;;;8.60;;
32946;SDS011;54465;51.230;22.504;2022-10-22T09:57:47;14.50;;;8.30;;
32946;SDS011;54465;51.230;22.504;2022-10-22T10:00:56;12.30;;;9.23;;
32946;SDS011;54465;51.230;22.504;2022-10-22T10:04:01;13.63;;;9.10;;
32946;SDS011;54465;51.230;22.504;2022-10-22T10:07:16;16.15;;;9.75;;
32946;SDS011;54465;51.230;22.504;2022-10-22T10:13:52;15.52;;;10.63;;
32946;SDS011;54465;51.230;22.504;2022-10-22T10:17:09;16.90;;;11.15;;
32946;SDS011;54465;51.230;22.504;2022-10-22T10:20:21;17.23;;;11.63;;
32946;SDS011;54465;51.230;22.504;2022-10-22T10:23:35;22.50;;;11.45;;
32946;SDS011;54465;51.230;22.504;2022-10-22T10:26:49;13.73;;;10.38;;
32946;SDS011;54465;51.230;22.504;2022-10-22T10:29:59;17.90;;;10.80;;
32946;SDS011;54465;51.230;22.504;2022-10-22T10:33:18;14.57;;;10.05;;
32946;SDS011;54465;51.230;22.504;2022-10-22T10:36:31;12.60;;;8.93;;
32946;SDS011;54465;51.230;22.504;2022-10-22T10:39:41;14.23;;;9.15;;
32946;SDS011;54465;51.230;22.504;2022-10-22T10:42:59;12.15;;;9.32;;
32946;SDS011;54465;51.230;22.504;2022-10-22T10:46:09;14.25;;;9.25;;
32946;SDS011;54465;51.230;22.504;2022-10-22T10:49:23;14.15;;;8.82;;
32946;SDS011;54465;51.230;22.504;2022-10-22T10:52:29;17.50;;;10.63;;
32946;SDS011;54465;51.230;22.504;2022-10-22T10:55:37;15.18;;;10.25;;
32946;SDS011;54465;51.230;22.504;2022-10-22T10:58:50;12.75;;;9.45;;
32946;SDS011;54465;51.230;22.504;2022-10-22T11:02:01;12.45;;;9.15;;
32946;SDS011;54465;51.230;22.504;2022-10-22T11:05:22;13.75;;;9.10;;
32946;SDS011;54465;51.230;22.504;2022-10-22T11:08:31;13.60;;;9.10;;
32946;SDS011;54465;51.230;22.504;2022-10-22T11:11:38;14.65;;;10.23;;
32946;SDS011;54465;51.230;22.504;2022-10-22T11:14:47;15.93;;;11.18;;
32946;SDS011;54465;51.230;22.504;2022-10-22T11:17:58;15.35;;;9.88;;
32946;SDS011;54465;51.230;22.504;2022-10-22T11:21:12;19.23;;;11.32;;
32946;SDS011;54465;51.230;22.504;2022-10-22T11:24:19;15.52;;;10.63;;
32946;SDS011;54465;51.230;22.504;2022-10-22T11:27:27;17.10;;;10.68;;
32946;SDS011;54465;51.230;22.504;2022-10-22T11:30:34;15.00;;;9.88;;
32946;SDS011;54465;51.230;22.504;2022-10-22T11:33:38;16.52;;;11.32;;
32946;SDS011;54465;51.230;22.504;2022-10-22T11:36:48;15.10;;;9.75;;
32946;SDS011;54465;51.230;22.504;2022-10-22T11:39:52;18.02;;;11.57;;
32946;SDS011;54465;51.230;22.504;2022-10-22T11:43:02;13.63;;;9.57;;
32946;SDS011;54465;51.230;22.504;2022-10-22T11:46:08;25.27;;;16.05;;
32946;SDS011;54465;51.230;22.504;2022-10-22T11:49:40;15.60;;;10.75;;
32946;SDS011;54465;51.230;22.504;2022-10-22T11:52:49;14.77;;;10.52;;
32946;SDS011;54465;51.230;22.504;2022-10-22T11:56:02;15.13;;;10.15;;
32946;SDS011;54465;51.230;22.504;2022-10-22T11:59:31;17.13;;;10.45;;
32946;SDS011;54465;51.230;22.504;2022-10-22T12:02:40;17.00;;;10.90;;
32946;SDS011;54465;51.230;22.504;2022-10-22T12:05:44;14.93;;;10.93;;
32946;SDS011;54465;51.230;22.504;2022-10-22T12:08:57;17.90;;;11.85;;
32946;SDS011;54465;51.230;22.504;2022-10-22T12:12:10;18.08;;;12.15;;
32946;SDS011;54465;51.230;22.504;2022-10-22T12:15:20;18.90;;;12.30;;
32946;SDS011;54465;51.230;22.504;2022-10-22T12:18:26;20.75;;;13.18;;
32946;SDS011;54465;51.230;22.504;2022-10-22T12:21:31;22.27;;;12.90;;
32946;SDS011;54465;51.230;22.504;2022-10-22T12:24:36;23.30;;;14.32;;
32946;SDS011;54465;51.230;22.504;2022-10-22T12:27:41;25.55;;;14.85;;
32946;SDS011;54465;51.230;22.504;2022-10-22T12:30:43;24.17;;;14.57;;
32946;SDS011;54465;51.230;22.504;2022-10-22T12:33:47;26.90;;;15.50;;
32946;SDS011;54465;51.230;22.504;2022-10-22T12:36:58;26.02;;;14.68;;
32946;SDS011;54465;51.230;22.504;2022-10-22T12:40:16;21.15;;;12.32;;
32946;SDS011;54465;51.230;22.504;2022-10-22T12:43:23;19.90;;;11.63;;
32946;SDS011;54465;51.230;22.504;2022-10-22T12:46:27;17.10;;;11.75;;
32946;SDS011;54465;51.230;22.504;2022-10-22T12:49:33;15.50;;;11.82;;
32946;SDS011;54465;51.230;22.504;2022-10-22T12:52:37;27.08;;;14.23;;
32946;SDS011;54465;51.230;22.504;2022-10-22T12:55:41;20.52;;;13.05;;
32946;SDS011;54465;51.230;22.504;2022-10-22T12:58:47;18.57;;;12.73;;
32946;SDS011;54465;51.230;22.504;2022-10-22T13:01:55;19.42;;;12.23;;
32946;SDS011;54465;51.230;22.504;2022-10-22T13:05:15;19.80;;;13.05;;
32946;SDS011;54465;51.230;22.504;2022-10-22T13:08:25;20.52;;;13.80;;
32946;SDS011;54465;51.230;22.504;2022-10-22T13:11:33;21.85;;;14.95;;
32946;SDS011;54465;51.230;22.504;2022-10-22T13:14:42;24.33;;;14.75;;
32946;SDS011;54465;51.230;22.504;2022-10-22T13:17:46;25.58;;;16.77;;
32946;SDS011;54465;51.230;22.504;2022-10-22T13:20:53;27.33;;;15.80;;
32946;SDS011;54465;51.230;22.504;2022-10-22T13:23:57;19.60;;;13.27;;
32946;SDS011;54465;51.230;22.504;2022-10-22T13:27:02;22.48;;;12.90;;
32946;SDS011;54465;51.230;22.504;2022-10-22T13:30:09;18.88;;;12.63;;
32946;SDS011;54465;51.230;22.504;2022-10-22T13:33:20;19.90;;;13.57;;
32946;SDS011;54465;51.230;22.504;2022-10-22T13:36:27;21.15;;;13.60;;
32946;SDS011;54465;51.230;22.504;2022-10-22T13:39:30;17.45;;;12.35;;
32946;SDS011;54465;51.230;22.504;2022-10-22T13:42:36;19.58;;;14.20;;
32946;SDS011;54465;51.230;22.504;2022-10-22T13:45:39;15.88;;;12.45;;
32946;SDS011;54465;51.230;22.504;2022-10-22T13:48:43;18.02;;;12.90;;
32946;SDS011;54465;51.230;22.504;2022-10-22T13:51:46;23.40;;;14.43;;
32946;SDS011;54465;51.230;22.504;2022-10-22T13:54:50;28.27;;;17.83;;
32946;SDS011;54465;51.230;22.504;2022-10-22T13:57:58;26.90;;;17.05;;
32946;SDS011;54465;51.230;22.504;2022-10-22T14:01:04;30.70;;;18.92;;
32946;SDS011;54465;51.230;22.504;2022-10-22T14:04:11;34.55;;;21.42;;
32946;SDS011;54465;51.230;22.504;2022-10-22T14:07:15;37.25;;;22.73;;
32946;SDS011;54465;51.230;22.504;2022-10-22T14:10:19;34.90;;;23.05;;
32946;SDS011;54465;51.230;22.504;2022-10-22T14:13:24;43.15;;;24.23;;
32946;SDS011;54465;51.230;22.504;2022-10-22T14:16:26;32.08;;;20.10;;
32946;SDS011;54465;51.230;22.504;2022-10-22T14:19:31;29.42;;;19.25;;
32946;SDS011;54465;51.230;22.504;2022-10-22T14:22:38;23.83;;;14.90;;
32946;SDS011;54465;51.230;22.504;2022-10-22T14:25:40;21.52;;;13.65;;
32946;SDS011;54465;51.230;22.504;2022-10-22T14:28:47;24.30;;;15.27;;
32946;SDS011;54465;51.230;22.504;2022-10-22T14:31:50;22.52;;;14.90;;
32946;SDS011;54465;51.230;22.504;2022-10-22T14:34:57;25.67;;;15.77;;
32946;SDS011;54465;51.230;22.504;2022-10-22T14:38:19;26.05;;;16.23;;
32946;SDS011;54465;51.230;22.504;2022-10-22T14:41:22;25.00;;;15.07;;
32946;SDS011;54465;51.230;22.504;2022-10-22T14:44:33;23.98;;;17.02;;
32946;SDS011;54465;51.230;22.504;2022-10-22T14:47:36;25.48;;;17.40;;
32946;SDS011;54465;51.230;22.504;2022-10-22T14:50:39;28.15;;;16.42;;
32946;SDS011;54465;51.230;22.504;2022-10-22T14:53:42;26.27;;;17.83;;
32946;SDS011;54465;51.230;22.504;2022-10-22T14:56:51;35.40;;;21.77;;
32946;SDS011;54465;51.230;22.504;2022-10-22T14:59:55;32.50;;;20.98;;
32946;SDS011;54465;51.230;22.504;2022-10-22T15:03:00;33.88;;;20.38;;
32946;SDS011;54465;51.230;22.504;2022-10-22T15:06:03;32.08;;;20.08;;
32946;SDS011;54465;51.230;22.504;2022-10-22T15:09:11;30.48;;;20.73;;
32946;SDS011;54465;51.230;22.504;2022-10-22T15:12:14;29.80;;;19.83;;
32946;SDS011;54465;51.230;22.504;2022-10-22T15:15:21;28.65;;;20.27;;
32946;SDS011;54465;51.230;22.504;2022-10-22T15:18:25;28.13;;;19.05;;
32946;SDS011;54465;51.230;22.504;2022-10-22T15:21:29;37.70;;;22.17;;
32946;SDS011;54465;51.230;22.504;2022-10-22T15:24:31;42.58;;;23.77;;
32946;SDS011;54465;51.230;22.504;2022-10-22T15:27:40;50.83;;;26.40;;
32946;SDS011;54465;51.230;22.504;2022-10-22T15:30:50;34.00;;;19.92;;
32946;SDS011;54465;51.230;22.504;2022-10-22T15:33:53;27.15;;;20.20;;
32946;SDS011;54465;51.230;22.504;2022-10-22T15:36:56;28.10;;;19.95;;
32946;SDS011;54465;51.230;22.504;2022-10-22T15:40:00;27.88;;;18.45;;
32946;SDS011;54465;51.230;22.504;2022-10-22T15:43:04;34.13;;;20.45;;
32946;SDS011;54465;51.230;22.504;2022-10-22T15:46:12;38.45;;;24.10;;
32946;SDS011;54465;51.230;22.504;2022-10-22T15:49:17;26.80;;;20.23;;
32946;SDS011;54465;51.230;22.504;2022-10-22T15:52:22;33.50;;;21.05;;
32946;SDS011;54465;51.230;22.504;2022-10-22T15:55:24;34.13;;;21.25;;
32946;SDS011;54465;51.230;22.504;2022-10-22T15:58:26;30.35;;;20.77;;
32946;SDS011;54465;51.230;22.504;2022-10-22T16:01:32;30.60;;;22.13;;
32946;SDS011;54465;51.230;22.504;2022-10-22T16:04:36;34.70;;;23.17;;
32946;SDS011;54465;51.230;22.504;2022-10-22T16:12:12;34.55;;;22.55;;
32946;SDS011;54465;51.230;22.504;2022-10-22T16:15:15;37.65;;;23.73;;
32946;SDS011;54465;51.230;22.504;2022-10-22T16:18:20;33.17;;;22.30;;
32946;SDS011;54465;51.230;22.504;2022-10-22T16:21:26;38.78;;;22.67;;
32946;SDS011;54465;51.230;22.504;2022-10-22T16:24:29;36.50;;;24.30;;
32946;SDS011;54465;51.230;22.504;2022-10-22T16:27:31;39.00;;;25.45;;
32946;SDS011;54465;51.230;22.504;2022-10-22T16:30:36;35.50;;;24.13;;
32946;SDS011;54465;51.230;22.504;2022-10-22T16:33:43;34.75;;;24.15;;
32946;SDS011;54465;51.230;22.504;2022-10-22T16:36:48;36.88;;;25.08;;
32946;SDS011;54465;51.230;22.504;2022-10-22T16:43:19;39.53;;;26.42;;
32946;SDS011;54465;51.230;22.504;2022-10-22T16:46:22;39.67;;;24.75;;
32946;SDS011;54465;51.230;22.504;2022-10-22T16:49:27;40.00;;;24.42;;
32946;SDS011;54465;51.230;22.504;2022-10-22T16:52:30;33.63;;;25.75;;
32946;SDS011;54465;51.230;22.504;2022-10-22T16:55:34;36.90;;;24.10;;
32946;SDS011;54465;51.230;22.504;2022-10-22T16:58:41;37.22;;;24.27;;
32946;SDS011;54465;51.230;22.504;2022-10-22T17:01:45;38.20;;;23.90;;
32946;SDS011;54465;51.230;22.504;2022-10-22T17:04:50;41.72;;;25.38;;
32946;SDS011;54465;51.230;22.504;2022-10-22T17:07:53;39.03;;;23.25;;
32946;SDS011;54465;51.230;22.504;2022-10-22T17:11:04;37.72;;;24.23;;
32946;SDS011;54465;51.230;22.504;2022-10-22T17:17:09;36.47;;;22.33;;
32946;SDS011;54465;51.230;22.504;2022-10-22T17:20:16;40.72;;;24.08;;
32946;SDS011;54465;51.230;22.504;2022-10-22T17:23:19;35.88;;;24.10;;
32946;SDS011;54465;51.230;22.504;2022-10-22T17:26:24;35.67;;;25.02;;
32946;SDS011;54465;51.230;22.504;2022-10-22T17:29:32;34.90;;;24.08;;
32946;SDS011;54465;51.230;22.504;2022-10-22T17:32:38;42.42;;;25.85;;
32946;SDS011;54465;51.230;22.504;2022-10-22T17:35:43;35.53;;;23.65;;
32946;SDS011;54465;51.230;22.504;2022-10-22T17:38:47;38.75;;;24.58;;
32946;SDS011;54465;51.230;22.504;2022-10-22T17:41:55;39.13;;;25.63;;
32946;SDS011;54465;51.230;22.504;2022-10-22T17:44:57;40.05;;;25.92;;
32946;SDS011;54465;51.230;22.504;2022-10-22T17:48:01;39.33;;;25.83;;
32946;SDS011;54465;51.230;22.504;2022-10-22T17:51:06;40.58;;;28.02;;
32946;SDS011;54465;51.230;22.504;2022-10-22T17:54:11;43.33;;;28.25;;
32946;SDS011;54465;51.230;22.504;2022-10-22T17:57:14;39.65;;;27.58;;
32946;SDS011;54465;51.230;22.504;2022-10-22T18:00:33;42.63;;;28.58;;
32946;SDS011;54465;51.230;22.504;2022-10-22T18:03:38;43.60;;;28.13;;
32946;SDS011;54465;51.230;22.504;2022-10-22T18:06:42;40.28;;;27.02;;
32946;SDS011;54465;51.230;22.504;2022-10-22T18:09:48;41.13;;;27.63;;
32946;SDS011;54465;51.230;22.504;2022-10-22T18:12:51;37.90;;;25.67;;
32946;SDS011;54465;51.230;22.504;2022-10-22T18:15:54;42.85;;;27.13;;
32946;SDS011;54465;51.230;22.504;2022-10-22T18:19:05;42.15;;;26.77;;
32946;SDS011;54465;51.230;22.504;2022-10-22T18:22:10;42.00;;;28.40;;
32946;SDS011;54465;51.230;22.504;2022-10-22T18:25:12;39.58;;;26.20;;
32946;SDS011;54465;51.230;22.504;2022-10-22T18:28:18;44.67;;;27.30;;
32946;SDS011;54465;51.230;22.504;2022-10-22T18:31:27;42.67;;;27.27;;